Time;durP1;ratioP1;P1;durP2;ratioP2;P2;SDS_P1;SDS_P2;PMS_P1;PMS_P2;Temp;Humidity;BMP_temperature;BMP_pressure;BME280_temperature;BME280_humidity;BME280_pressure;Samples;Min_cycle;Max_cycle;Signal;HPM_P1;HPM_P2
2024/01/16 00:01:18;;;;;;;11.00;3.03;;;4.60;75.40;;;;;;5089079;28;20055;-74
2024/01/16 00:03:44;;;;;;;11.00;2.97;;;4.60;75.40;;;;;;5082556;28;20020;-74
2024/01/16 00:06:10;;;;;;;7.37;2.87;;;4.60;75.40;;;;;;5092454;28;20021;-74
2024/01/16 00:08:36;;;;;;;11.80;2.93;;;4.60;75.30;;;;;;5090639;28;20027;-74
2024/01/16 00:11:02;;;;;;;9.67;2.70;;;4.70;75.30;;;;;;5090076;28;20112;-74
2024/01/16 00:13:28;;;;;;;6.60;2.33;;;4.60;75.20;;;;;;5080051;28;20059;-74
2024/01/16 00:15:56;;;;;;;8.03;2.70;;;4.60;75.30;;;;;;5076556;28;20481;-74
2024/01/16 00:18:22;;;;;;;7.77;2.27;;;4.60;75.30;;;;;;5080415;28;20040;-74
2024/01/16 00:20:48;;;;;;;6.53;1.93;;;4.50;75.20;;;;;;5080102;28;20031;-74
2024/01/16 00:23:14;;;;;;;8.73;2.10;;;4.50;75.20;;;;;;5090151;28;20489;-74
2024/01/16 00:25:41;;;;;;;8.33;2.77;;;4.50;75.20;;;;;;5095944;28;20055;-74
2024/01/16 00:28:07;;;;;;;6.60;1.77;;;4.50;75.10;;;;;;5096410;28;20039;-74
2024/01/16 00:30:33;;;;;;;3.03;1.43;;;4.50;75.10;;;;;;5100475;28;20020;-74
2024/01/16 00:32:59;;;;;;;4.40;2.17;;;4.50;75.10;;;;;;5104397;28;20103;-74
2024/01/16 00:35:25;;;;;;;5.83;1.43;;;4.50;75.10;;;;;;5101142;28;20126;-74
2024/01/16 00:37:52;;;;;;;7.40;2.10;;;4.50;75.00;;;;;;5096870;28;20073;-74
2024/01/16 00:40:17;;;;;;;6.67;2.10;;;4.50;75.00;;;;;;5101181;28;20028;-74
2024/01/16 00:42:43;;;;;;;8.27;2.00;;;4.50;75.00;;;;;;5092335;28;20016;-74
2024/01/16 00:45:09;;;;;;;7.60;2.00;;;4.50;75.10;;;;;;5097779;28;20424;-74
2024/01/16 00:47:35;;;;;;;5.27;1.80;;;4.50;75.00;;;;;;5094910;28;20051;-74
2024/01/16 00:50:01;;;;;;;6.13;1.77;;;4.50;75.00;;;;;;5099619;28;20032;-74
2024/01/16 00:52:28;;;;;;;5.73;1.87;;;4.40;74.90;;;;;;5099777;28;20020;-74
2024/01/16 00:54:54;;;;;;;9.53;1.63;;;4.40;74.90;;;;;;5096152;28;20107;-75
2024/01/16 00:57:19;;;;;;;5.30;1.60;;;4.50;75.00;;;;;;5100887;28;20118;-74
2024/01/16 00:59:48;;;;;;;9.60;2.03;;;4.40;74.90;;;;;;5098008;28;20086;-74
2024/01/16 01:02:14;;;;;;;5.13;1.80;;;4.50;74.90;;;;;;5094674;28;20042;-74
2024/01/16 01:04:41;;;;;;;8.97;1.70;;;4.50;74.90;;;;;;5083510;28;20513;-74
2024/01/16 01:07:08;;;;;;;10.23;2.33;;;4.50;74.90;;;;;;5081336;28;20017;-74
2024/01/16 01:09:34;;;;;;;7.23;2.40;;;4.50;74.90;;;;;;5088725;28;20024;-74
2024/01/16 01:12:00;;;;;;;7.97;1.80;;;4.50;74.90;;;;;;5086659;28;20028;-74
2024/01/16 01:14:29;;;;;;;5.13;1.73;;;4.50;74.80;;;;;;5088258;28;20460;-74
2024/01/16 01:16:54;;;;;;;5.87;1.87;;;4.50;74.70;;;;;;5087017;28;20122;-75
2024/01/16 01:19:20;;;;;;;5.27;1.60;;;4.60;74.70;;;;;;5089793;28;20031;-74
2024/01/16 01:21:46;;;;;;;8.00;1.60;;;4.50;74.70;;;;;;5090091;28;20181;-74
2024/01/16 01:24:11;;;;;;;3.83;1.40;;;4.50;74.70;;;;;;5089588;28;20205;-74
2024/01/16 01:26:37;;;;;;;5.00;1.60;;;4.50;74.70;;;;;;5071326;28;20078;-74
2024/01/16 01:29:03;;;;;;;6.47;1.77;;;4.50;74.70;;;;;;5075608;28;20024;-74
2024/01/16 01:31:28;;;;;;;6.77;1.80;;;4.50;74.80;;;;;;5074552;28;20029;-74
2024/01/16 01:33:54;;;;;;;4.47;1.50;;;4.50;74.70;;;;;;5079385;28;20035;-74
2024/01/16 01:36:20;;;;;;;5.17;1.60;;;4.50;74.70;;;;;;5075243;28;20044;-74
2024/01/16 01:38:46;;;;;;;8.67;1.80;;;4.40;74.60;;;;;;5083312;28;20025;-74
2024/01/16 01:41:12;;;;;;;7.87;2.00;;;4.40;74.70;;;;;;5077659;28;20449;-74
2024/01/16 01:43:38;;;;;;;7.20;1.67;;;4.40;74.70;;;;;;5098104;28;20433;-75
2024/01/16 01:46:19;;;;;;;5.23;1.53;;;4.40;74.70;;;;;;5095957;28;20043;-74
2024/01/16 01:48:48;;;;;;;6.70;1.45;;;4.40;74.70;;;;;;5084647;28;20101;-74
2024/01/16 01:51:17;;;;;;;7.40;1.87;;;4.30;74.70;;;;;;5088150;28;20475;-74
2024/01/16 01:53:44;;;;;;;5.83;1.90;;;4.30;75.30;;;;;;5088300;28;20028;-74
2024/01/16 01:56:18;;;;;;;4.80;1.60;;;4.30;74.70;;;;;;5101292;28;20097;-74
2024/01/16 01:58:47;;;;;;;6.83;1.60;;;4.30;74.60;;;;;;5090683;28;20122;-74
2024/01/16 02:01:16;;;;;;;5.87;2.00;;;4.20;74.60;;;;;;5061158;28;20479;-74
2024/01/16 02:03:44;;;;;;;6.93;1.83;;;4.30;74.70;;;;;;5079197;28;20032;-74
2024/01/16 02:06:12;;;;;;;7.40;2.00;;;4.20;74.70;;;;;;5082023;28;20389;-74
2024/01/16 02:08:41;;;;;;;6.47;1.97;;;4.20;74.70;;;;;;5091897;28;20039;-74
2024/01/16 02:11:07;;;;;;;5.47;1.67;;;4.30;74.70;;;;;;5080141;28;20035;-74
2024/01/16 02:13:33;;;;;;;5.40;1.57;;;4.20;74.60;;;;;;5085497;28;20032;-74
2024/01/16 02:15:59;;;;;;;4.70;1.77;;;4.20;74.70;;;;;;5085088;28;20436;-74
2024/01/16 02:18:25;;;;;;;8.00;2.37;;;4.20;74.70;;;;;;5097821;28;20129;-74
2024/01/16 02:20:51;;;;;;;4.00;1.40;;;4.20;74.70;;;;;;5085578;28;20069;-74
2024/01/16 02:23:26;;;;;;;7.73;2.37;;;4.20;74.70;;;;;;5083922;28;20307;-74
2024/01/16 02:25:52;;;;;;;6.23;1.97;;;4.20;74.70;;;;;;5099003;28;20094;-74
2024/01/16 02:28:18;;;;;;;5.50;1.83;;;4.10;74.70;;;;;;5085358;28;20021;-74
2024/01/16 02:30:44;;;;;;;4.73;1.80;;;4.10;74.70;;;;;;5073324;28;20035;-74
2024/01/16 02:33:09;;;;;;;5.27;2.00;;;4.10;74.80;;;;;;5086063;28;20036;-74
2024/01/16 02:35:35;;;;;;;8.47;2.10;;;4.10;74.90;;;;;;5098977;28;20066;-74
2024/01/16 02:38:01;;;;;;;8.13;2.30;;;4.10;74.90;;;;;;5099905;28;20336;-74
2024/01/16 02:40:27;;;;;;;8.30;2.27;;;4.10;74.90;;;;;;5084129;28;20025;-74
2024/01/16 02:42:52;;;;;;;8.30;2.30;;;4.10;75.00;;;;;;5100135;28;20039;-74
2024/01/16 02:45:18;;;;;;;9.47;2.60;;;4.10;75.00;;;;;;5097910;28;20115;-74
2024/01/16 02:47:44;;;;;;;7.30;2.43;;;4.20;75.00;;;;;;5094864;28;20032;-74
2024/01/16 02:50:10;;;;;;;8.00;2.57;;;4.20;75.00;;;;;;5096626;28;20114;-74
2024/01/16 02:52:36;;;;;;;9.60;2.77;;;4.20;75.10;;;;;;5101795;28;20024;-74
2024/01/16 02:55:01;;;;;;;9.90;2.97;;;4.20;75.10;;;;;;5096918;28;20100;-74
2024/01/16 02:57:27;;;;;;;8.33;3.30;;;4.30;75.10;;;;;;5102668;28;20511;-74
2024/01/16 02:59:53;;;;;;;7.30;3.20;;;4.30;75.10;;;;;;5102779;28;20084;-75
2024/01/16 03:02:19;;;;;;;6.90;3.30;;;4.30;75.00;;;;;;5109715;28;20019;-74
2024/01/16 03:04:44;;;;;;;7.80;3.60;;;4.40;75.00;;;;;;5085647;28;20419;-74
2024/01/16 03:07:10;;;;;;;8.27;3.73;;;4.40;75.00;;;;;;5105245;28;20020;-74
2024/01/16 03:09:36;;;;;;;7.50;3.63;;;4.40;75.00;;;;;;5091337;28;20031;-74
2024/01/16 03:12:02;;;;;;;9.23;3.20;;;4.40;75.00;;;;;;5092455;28;20092;-74
2024/01/16 03:14:33;;;;;;;6.63;3.40;;;4.40;75.00;;;;;;5109596;27;20122;-74
2024/01/16 03:17:03;;;;;;;10.30;4.00;;;4.40;75.00;;;;;;5091134;28;20015;-74
2024/01/16 03:19:29;;;;;;;6.43;3.33;;;4.40;75.10;;;;;;5082475;28;20075;-74
2024/01/16 03:21:55;;;;;;;9.43;3.83;;;4.40;75.10;;;;;;5076951;28;20040;-74
2024/01/16 03:24:20;;;;;;;10.13;3.97;;;4.40;75.20;;;;;;5096913;28;20063;-75
2024/01/16 03:26:46;;;;;;;8.60;3.80;;;4.40;75.30;;;;;;5085155;28;20026;-74
2024/01/16 03:29:12;;;;;;;8.70;3.60;;;4.40;75.40;;;;;;5084708;28;20445;-74
2024/01/16 03:31:38;;;;;;;9.07;3.37;;;4.40;75.40;;;;;;5080318;28;20036;-75
2024/01/16 03:34:03;;;;;;;8.80;3.63;;;4.40;75.40;;;;;;5080508;28;20056;-74
2024/01/16 03:36:29;;;;;;;9.20;3.53;;;4.40;75.40;;;;;;5086364;28;20541;-74
2024/01/16 03:38:55;;;;;;;8.07;3.17;;;4.40;75.50;;;;;;5090664;28;20027;-74
2024/01/16 03:41:21;;;;;;;7.03;3.07;;;4.40;75.50;;;;;;5086496;28;20472;-74
2024/01/16 03:43:47;;;;;;;7.83;3.10;;;4.40;75.50;;;;;;5097487;28;20024;-74
2024/01/16 03:46:13;;;;;;;9.50;3.20;;;4.40;75.60;;;;;;5089590;28;20099;-74
2024/01/16 03:48:39;;;;;;;6.67;3.20;;;4.50;75.60;;;;;;5089932;28;20032;-74
2024/01/16 03:51:06;;;;;;;7.13;3.47;;;4.40;75.60;;;;;;5081902;28;20084;-74
2024/01/16 03:53:32;;;;;;;9.77;3.50;;;4.40;75.70;;;;;;5081814;28;20032;-75
2024/01/16 03:55:58;;;;;;;9.77;3.70;;;4.40;75.70;;;;;;5082203;28;20035;-75
2024/01/16 03:58:24;;;;;;;8.87;3.50;;;4.40;75.70;;;;;;5082035;28;20032;-75
2024/01/16 04:00:50;;;;;;;8.60;3.33;;;4.40;75.70;;;;;;5082369;28;20049;-75
2024/01/16 04:03:17;;;;;;;10.77;3.33;;;4.40;75.70;;;;;;5105110;28;20032;-75
2024/01/16 04:05:42;;;;;;;9.50;3.23;;;4.40;75.60;;;;;;5101872;28;20024;-75
2024/01/16 04:08:08;;;;;;;10.47;2.97;;;4.40;75.60;;;;;;5102005;28;20024;-75
2024/01/16 04:10:34;;;;;;;6.70;3.13;;;4.40;75.60;;;;;;5101592;28;20020;-75
2024/01/16 04:13:01;;;;;;;7.47;3.43;;;4.40;75.60;;;;;;5101714;28;20031;-74
2024/01/16 04:15:28;;;;;;;6.17;2.97;;;4.40;75.70;;;;;;5105743;28;20032;-74
2024/01/16 04:17:54;;;;;;;7.43;2.77;;;4.40;75.70;;;;;;5094788;28;20073;-74
2024/01/16 04:20:21;;;;;;;9.00;2.67;;;4.40;75.70;;;;;;5097150;28;20032;-74
2024/01/16 04:22:46;;;;;;;8.77;3.10;;;4.40;75.70;;;;;;5099373;28;20115;-74
2024/01/16 04:25:12;;;;;;;8.63;2.40;;;4.50;75.80;;;;;;5110095;28;20100;-74
2024/01/16 04:27:38;;;;;;;7.17;2.83;;;4.50;75.70;;;;;;5097597;28;20169;-75
2024/01/16 04:30:05;;;;;;;8.00;2.43;;;4.50;75.70;;;;;;5090031;28;20019;-74
2024/01/16 04:32:31;;;;;;;6.87;2.53;;;4.50;75.80;;;;;;5094473;28;20020;-75
2024/01/16 04:34:56;;;;;;;10.03;3.00;;;4.50;75.80;;;;;;5113034;28;20336;-75
2024/01/16 04:37:22;;;;;;;7.10;2.53;;;4.50;75.80;;;;;;5096045;28;20020;-74
2024/01/16 04:39:48;;;;;;;8.13;2.70;;;4.50;75.90;;;;;;5099842;28;20479;-75
2024/01/16 04:42:14;;;;;;;8.47;2.90;;;4.50;76.00;;;;;;5096007;28;20055;-75
2024/01/16 04:44:41;;;;;;;5.87;2.40;;;4.50;75.90;;;;;;5082276;28;20120;-75
2024/01/16 04:47:07;;;;;;;6.03;2.50;;;4.50;76.00;;;;;;5097541;28;20447;-75
2024/01/16 04:49:32;;;;;;;8.03;2.27;;;4.50;76.00;;;;;;5090418;28;20119;-74
2024/01/16 04:51:58;;;;;;;6.83;2.40;;;4.50;76.00;;;;;;5103158;28;20036;-75
2024/01/16 04:54:24;;;;;;;6.67;2.23;;;4.40;76.00;;;;;;5108756;28;20165;-75
2024/01/16 04:56:49;;;;;;;8.07;2.77;;;4.50;76.10;;;;;;5097256;28;20122;-75
2024/01/16 04:59:15;;;;;;;6.10;2.53;;;4.50;76.10;;;;;;5110669;28;20028;-75
2024/01/16 05:01:41;;;;;;;8.17;2.87;;;4.50;76.10;;;;;;5101270;28;20028;-75
2024/01/16 05:04:08;;;;;;;8.33;2.43;;;4.50;76.10;;;;;;5102058;28;20024;-75
2024/01/16 05:06:34;;;;;;;7.00;2.20;;;4.50;76.00;;;;;;5101008;28;20039;-75
2024/01/16 05:09:00;;;;;;;5.77;2.47;;;4.50;76.00;;;;;;5097311;28;20028;-75
2024/01/16 05:11:26;;;;;;;9.57;2.97;;;4.50;76.00;;;;;;5106015;28;20038;-75
2024/01/16 05:13:57;;;;;;;7.17;2.33;;;4.50;76.00;;;;;;5103214;28;20457;-75
2024/01/16 05:16:26;;;;;;;6.18;2.28;;;4.50;76.00;;;;;;5096855;28;20024;-75
2024/01/16 05:18:53;;;;;;;5.53;2.50;;;4.50;76.00;;;;;;5098194;28;20030;-74
2024/01/16 05:21:20;;;;;;;6.30;2.70;;;4.40;76.00;;;;;;5100354;28;20020;-75
2024/01/16 05:23:46;;;;;;;6.67;2.90;;;4.40;76.00;;;;;;5103706;28;20433;-75
2024/01/16 05:26:12;;;;;;;8.13;3.13;;;4.50;76.00;;;;;;5097729;28;20016;-75
2024/01/16 05:28:39;;;;;;;8.60;3.77;;;4.50;76.00;;;;;;5107940;28;20055;-75
2024/01/16 05:31:05;;;;;;;8.67;3.10;;;4.50;76.10;;;;;;5092944;28;20019;-75
2024/01/16 05:33:32;;;;;;;9.10;3.47;;;4.50;76.10;;;;;;5101081;28;20069;-75
2024/01/16 05:35:58;;;;;;;8.37;3.00;;;4.50;76.00;;;;;;5084033;28;20470;-75
2024/01/16 05:38:23;;;;;;;6.80;2.73;;;4.50;76.00;;;;;;5095792;28;20020;-75
2024/01/16 05:40:49;;;;;;;7.47;3.00;;;4.50;75.90;;;;;;5096161;28;20770;-74
2024/01/16 05:43:15;;;;;;;6.67;2.73;;;4.50;75.90;;;;;;5094276;28;20051;-75
2024/01/16 05:45:41;;;;;;;5.17;2.40;;;4.50;75.80;;;;;;5099109;28;20052;-74
2024/01/16 05:48:08;;;;;;;11.07;2.83;;;4.50;75.80;;;;;;5105772;28;20023;-74
2024/01/16 05:50:34;;;;;;;6.53;2.50;;;4.50;75.90;;;;;;5096858;28;20026;-74
2024/01/16 05:53:00;;;;;;;8.67;2.37;;;4.50;75.90;;;;;;5100147;28;20467;-75
2024/01/16 05:55:26;;;;;;;5.37;2.23;;;4.50;75.90;;;;;;5098631;28;20023;-74
2024/01/16 05:57:52;;;;;;;7.03;2.27;;;4.50;75.90;;;;;;5095169;28;20032;-74
2024/01/16 06:00:18;;;;;;;5.10;1.80;;;4.50;75.80;;;;;;5097644;28;20024;-75
2024/01/16 06:02:44;;;;;;;4.90;1.60;;;4.50;76.40;;;;;;5100955;28;20455;-74
2024/01/16 06:05:10;;;;;;;5.57;1.60;;;4.50;75.80;;;;;;5098991;28;20035;-74
2024/01/16 06:07:36;;;;;;;6.97;1.87;;;4.50;75.70;;;;;;5100767;28;20027;-74
2024/01/16 06:10:02;;;;;;;8.80;1.87;;;4.50;75.70;;;;;;5075054;28;20044;-75
2024/01/16 06:12:27;;;;;;;6.93;1.83;;;4.50;75.70;;;;;;5103642;28;20117;-74
2024/01/16 06:14:53;;;;;;;6.57;1.77;;;4.50;75.60;;;;;;5093582;28;20030;-75
2024/01/16 06:17:19;;;;;;;6.27;1.70;;;4.50;75.60;;;;;;5101798;28;20119;-74
2024/01/16 06:19:44;;;;;;;5.03;1.80;;;4.50;75.60;;;;;;5099422;28;20054;-74
2024/01/16 06:22:11;;;;;;;6.33;1.70;;;4.50;75.60;;;;;;5095942;28;20363;-74
2024/01/16 06:24:37;;;;;;;5.87;2.23;;;4.50;75.60;;;;;;5100563;28;20052;-74
2024/01/16 06:27:06;;;;;;;7.67;1.93;;;4.50;75.60;;;;;;5103756;28;20021;-74
2024/01/16 06:29:32;;;;;;;6.23;1.93;;;4.50;75.60;;;;;;5079148;28;20361;-74
2024/01/16 06:31:58;;;;;;;7.03;2.33;;;4.50;75.60;;;;;;5099187;28;20027;-74
2024/01/16 06:34:24;;;;;;;5.17;1.97;;;4.50;75.60;;;;;;5108549;28;20113;-74
2024/01/16 06:36:49;;;;;;;9.20;2.00;;;4.50;75.60;;;;;;5106588;28;20019;-74
2024/01/16 06:39:15;;;;;;;6.20;2.10;;;4.40;75.50;;;;;;5100325;28;20044;-74
2024/01/16 06:41:41;;;;;;;8.20;2.30;;;4.50;75.60;;;;;;5093007;28;20023;-74
2024/01/16 06:44:07;;;;;;;6.87;1.97;;;4.50;75.60;;;;;;5095114;28;20409;-75
2024/01/16 06:46:34;;;;;;;7.13;2.17;;;4.50;75.60;;;;;;5096854;28;20028;-74
2024/01/16 06:49:00;;;;;;;6.87;2.57;;;4.40;75.60;;;;;;5088046;28;20035;-74
2024/01/16 06:51:27;;;;;;;4.77;1.87;;;4.40;75.70;;;;;;5084222;28;20032;-74
2024/01/16 06:53:53;;;;;;;8.73;1.97;;;4.40;75.70;;;;;;5085023;28;20118;-75
2024/01/16 06:56:18;;;;;;;4.63;1.63;;;4.40;75.70;;;;;;5088894;28;20182;-75
2024/01/16 06:58:44;;;;;;;7.83;2.00;;;4.50;75.70;;;;;;5089322;28;20025;-75
2024/01/16 07:01:10;;;;;;;4.13;1.60;;;4.50;75.70;;;;;;5090647;28;20367;-75
2024/01/16 07:03:36;;;;;;;3.60;1.33;;;4.50;75.60;;;;;;5089361;28;20178;-75
2024/01/16 07:06:02;;;;;;;6.17;1.80;;;4.50;75.60;;;;;;5098066;28;20034;-75
2024/01/16 07:08:28;;;;;;;7.37;2.00;;;4.50;75.60;;;;;;5101422;28;20031;-75
2024/01/16 07:10:54;;;;;;;7.37;2.30;;;4.50;75.70;;;;;;5096686;28;20040;-76
2024/01/16 07:13:20;;;;;;;7.70;2.07;;;4.50;75.70;;;;;;5097340;28;20074;-76
2024/01/16 07:15:45;;;;;;;5.83;2.10;;;4.50;75.80;;;;;;5078675;28;20459;-75
2024/01/16 07:18:11;;;;;;;6.20;2.10;;;4.50;75.80;;;;;;5106205;28;20114;-74
2024/01/16 07:20:37;;;;;;;5.93;1.80;;;4.50;75.80;;;;;;5095842;28;20028;-74
2024/01/16 07:23:04;;;;;;;8.67;2.67;;;4.50;75.80;;;;;;5092997;28;20328;-74
2024/01/16 07:25:30;;;;;;;7.27;2.23;;;4.50;75.80;;;;;;5097032;28;20065;-74
2024/01/16 07:27:56;;;;;;;7.67;2.27;;;4.50;75.80;;;;;;5095086;28;20750;-75
2024/01/16 07:30:22;;;;;;;7.33;2.07;;;4.50;75.80;;;;;;5103430;28;20023;-75
2024/01/16 07:32:48;;;;;;;6.30;2.20;;;4.50;75.80;;;;;;5083775;28;20039;-75
2024/01/16 07:35:15;;;;;;;7.10;2.50;;;4.50;75.80;;;;;;5089596;28;20116;-75
2024/01/16 07:37:41;;;;;;;6.67;2.50;;;4.50;75.90;;;;;;5094687;28;20035;-74
2024/01/16 07:40:09;;;;;;;10.50;2.53;;;4.50;75.90;;;;;;5107001;28;20031;-75
2024/01/16 07:42:35;;;;;;;7.63;2.83;;;4.50;75.90;;;;;;5100212;28;20028;-75
2024/01/16 07:45:04;;;;;;;7.63;2.70;;;4.50;75.90;;;;;;5097454;28;20031;-76
2024/01/16 07:47:33;;;;;;;6.83;2.70;;;4.50;75.80;;;;;;5103114;28;20028;-76
2024/01/16 07:49:59;;;;;;;7.23;2.63;;;4.50;75.80;;;;;;5097363;28;20028;-77
2024/01/16 07:52:27;;;;;;;10.17;3.40;;;4.50;75.70;;;;;;5107997;28;20027;-76
2024/01/16 07:54:53;;;;;;;7.30;3.53;;;4.50;75.70;;;;;;5101004;28;20020;-77
2024/01/16 07:57:18;;;;;;;7.80;3.10;;;4.60;75.70;;;;;;5100405;28;20068;-75
2024/01/16 07:59:44;;;;;;;9.87;3.87;;;4.60;75.70;;;;;;5102993;28;20019;-76
2024/01/16 08:02:10;;;;;;;8.70;4.50;;;4.60;75.70;;;;;;5106229;28;20039;-76
2024/01/16 08:04:36;;;;;;;9.13;4.00;;;4.60;75.60;;;;;;5100166;28;20019;-74
2024/01/16 08:07:02;;;;;;;15.53;4.50;;;4.60;75.60;;;;;;5084339;28;20348;-74
2024/01/16 08:09:28;;;;;;;10.80;4.40;;;4.60;75.50;;;;;;5100472;28;20451;-75
2024/01/16 08:11:53;;;;;;;12.10;5.10;;;4.60;75.50;;;;;;5102662;28;20061;-75
2024/01/16 08:14:19;;;;;;;10.77;5.13;;;4.60;75.50;;;;;;5098634;28;20027;-76
2024/01/16 08:16:45;;;;;;;12.07;5.10;;;4.60;75.60;;;;;;5098370;28;20024;-75
2024/01/16 08:19:10;;;;;;;9.97;4.80;;;4.60;75.60;;;;;;5098144;28;20172;-75
2024/01/16 08:21:36;;;;;;;11.23;5.53;;;4.60;75.60;;;;;;5099904;28;20119;-76
2024/01/16 08:24:02;;;;;;;12.10;5.70;;;4.60;75.50;;;;;;5103220;27;20048;-74
2024/01/16 08:26:28;;;;;;;13.10;5.13;;;4.50;75.40;;;;;;5095421;28;20023;-77
2024/01/16 08:28:54;;;;;;;9.57;4.83;;;4.50;75.50;;;;;;5104335;28;20039;-77
2024/01/16 08:31:20;;;;;;;10.43;5.47;;;4.50;75.40;;;;;;5103975;28;20021;-77
2024/01/16 08:33:47;;;;;;;12.00;5.67;;;4.50;75.40;;;;;;5095059;28;20040;-77
2024/01/16 08:36:13;;;;;;;11.60;5.37;;;4.50;75.40;;;;;;5104858;28;20040;-77
2024/01/16 08:38:40;;;;;;;12.47;5.50;;;4.50;75.40;;;;;;5091174;28;20118;-77
2024/01/16 08:41:06;;;;;;;11.57;5.70;;;4.50;75.40;;;;;;5106340;28;20039;-77
2024/01/16 08:43:35;;;;;;;10.70;5.43;;;4.50;75.40;;;;;;5101272;28;20107;-77
2024/01/16 08:46:01;;;;;;;10.37;4.43;;;4.50;75.30;;;;;;5105064;28;20448;-77
2024/01/16 08:48:27;;;;;;;9.10;5.17;;;4.50;75.10;;;;;;5103610;28;20066;-77
2024/01/16 08:50:54;;;;;;;14.07;5.17;;;4.50;75.10;;;;;;5105505;28;20015;-77
2024/01/16 08:53:22;;;;;;;9.67;4.67;;;4.50;75.00;;;;;;5109246;28;20044;-77
2024/01/16 08:55:48;;;;;;;13.20;5.07;;;4.40;75.10;;;;;;5107734;28;20031;-77
2024/01/16 08:58:14;;;;;;;13.63;4.80;;;4.50;75.00;;;;;;5091571;28;20089;-77
2024/01/16 09:00:40;;;;;;;10.27;4.47;;;4.40;74.90;;;;;;5103591;28;20023;-77
2024/01/16 09:03:05;;;;;;;9.40;3.77;;;4.50;74.90;;;;;;5104273;28;20016;-77
2024/01/16 09:05:31;;;;;;;10.83;3.73;;;4.50;74.80;;;;;;5106385;28;20040;-77
2024/01/16 09:07:57;;;;;;;13.30;4.77;;;4.50;74.60;;;;;;5110800;28;20055;-75
2024/01/16 09:10:23;;;;;;;9.30;4.10;;;4.50;74.60;;;;;;5106160;28;20070;-76
2024/01/16 09:12:48;;;;;;;10.83;4.33;;;4.50;74.50;;;;;;5105716;28;20027;-75
2024/01/16 09:15:15;;;;;;;9.83;3.83;;;4.50;74.50;;;;;;5105974;28;20032;-75
2024/01/16 09:17:41;;;;;;;11.23;4.23;;;4.50;74.40;;;;;;5108866;28;20452;-75
2024/01/16 09:20:07;;;;;;;7.10;3.77;;;4.50;74.40;;;;;;5103862;28;20042;-77
2024/01/16 09:22:33;;;;;;;12.03;4.03;;;4.50;74.40;;;;;;5100464;28;20025;-77
2024/01/16 09:24:59;;;;;;;11.27;4.60;;;4.50;74.30;;;;;;5107867;28;20481;-77
2024/01/16 09:27:24;;;;;;;8.30;3.50;;;4.50;74.20;;;;;;5109313;28;20029;-77
2024/01/16 09:29:51;;;;;;;10.33;3.83;;;4.50;74.10;;;;;;5102361;28;20047;-77
2024/01/16 09:32:16;;;;;;;9.70;4.10;;;4.50;74.10;;;;;;5109542;28;20036;-77
2024/01/16 09:34:42;;;;;;;9.33;4.03;;;4.50;74.00;;;;;;5104400;28;20042;-78
2024/01/16 09:37:08;;;;;;;7.70;4.03;;;4.50;73.90;;;;;;5107317;28;20393;-77
2024/01/16 09:39:35;;;;;;;10.63;4.13;;;4.60;73.80;;;;;;5107682;28;20027;-77
2024/01/16 09:42:04;;;;;;;10.53;4.00;;;4.50;73.60;;;;;;5107902;28;20359;-77
2024/01/16 09:44:30;;;;;;;11.37;4.10;;;4.50;73.60;;;;;;5108944;28;20031;-77
2024/01/16 09:46:57;;;;;;;8.53;3.50;;;4.50;73.50;;;;;;5097127;28;20458;-77
2024/01/16 09:49:23;;;;;;;8.37;3.60;;;4.60;73.50;;;;;;5102565;28;20032;-77
2024/01/16 09:51:49;;;;;;;11.93;4.10;;;4.60;73.30;;;;;;5104138;28;20027;-77
2024/01/16 09:54:15;;;;;;;8.30;3.80;;;4.70;73.10;;;;;;5107113;28;20055;-77
2024/01/16 09:56:46;;;;;;;11.57;3.50;;;4.80;72.90;;;;;;5104929;28;20027;-77
2024/01/16 09:59:16;;;;;;;12.93;3.60;;;4.80;72.60;;;;;;5107550;28;20074;-77
2024/01/16 10:01:43;;;;;;;6.63;3.43;;;4.80;72.50;;;;;;5082052;28;20081;-77
2024/01/16 10:04:09;;;;;;;6.57;3.43;;;4.80;72.50;;;;;;5105642;28;20072;-77
2024/01/16 10:06:37;;;;;;;7.50;3.20;;;4.70;72.40;;;;;;5106571;28;20043;-77
2024/01/16 10:09:04;;;;;;;11.33;3.50;;;4.70;72.40;;;;;;5092409;28;20032;-77
2024/01/16 10:11:32;;;;;;;10.87;4.30;;;4.70;72.50;;;;;;5105988;28;20035;-78
2024/01/16 10:13:58;;;;;;;7.00;2.93;;;4.70;72.50;;;;;;5110019;28;20027;-77
2024/01/16 10:17:09;;;;;;;8.53;3.23;;;4.70;72.50;;;;;;5110684;28;20120;-78
2024/01/16 10:19:43;;;;;;;11.97;3.60;;;4.80;72.20;;;;;;5113001;28;20096;-77
2024/01/16 10:22:09;;;;;;;8.33;3.10;;;4.90;72.10;;;;;;5108759;28;20099;-78
2024/01/16 10:24:35;;;;;;;7.17;2.77;;;5.00;71.90;;;;;;5104300;28;20465;-77
2024/01/16 10:27:04;;;;;;;9.10;3.77;;;5.00;71.70;;;;;;5111676;28;20020;-78
2024/01/16 10:29:33;;;;;;;10.87;3.40;;;5.00;71.50;;;;;;5106216;28;20032;-78
2024/01/16 10:31:59;;;;;;;8.10;2.93;;;5.00;71.50;;;;;;5112849;28;20035;-78
2024/01/16 10:34:25;;;;;;;11.23;3.43;;;5.00;71.50;;;;;;5100560;28;20055;-78
2024/01/16 10:36:57;;;;;;;7.63;3.50;;;5.10;71.30;;;;;;5115600;28;20032;-78
2024/01/16 10:39:25;;;;;;;9.03;3.33;;;5.10;71.10;;;;;;5100361;28;20063;-77
2024/01/16 10:41:55;;;;;;;9.10;3.63;;;5.10;71.10;;;;;;5090176;28;20047;-77
2024/01/16 10:44:21;;;;;;;10.93;3.60;;;5.10;71.00;;;;;;5108510;28;20024;-78
2024/01/16 10:46:47;;;;;;;9.83;3.30;;;5.10;71.10;;;;;;5108321;28;20360;-78
2024/01/16 10:49:12;;;;;;;8.83;3.70;;;5.20;70.90;;;;;;5107858;28;20016;-77
2024/01/16 10:51:42;;;;;;;12.20;3.10;;;5.30;70.50;;;;;;5111066;28;20040;-78
2024/01/16 10:54:13;;;;;;;7.47;3.63;;;5.30;70.30;;;;;;5110214;28;20360;-77
2024/01/16 10:56:46;;;;;;;7.40;2.70;;;5.30;70.20;;;;;;5104242;28;20040;-77
2024/01/16 10:59:25;;;;;;;7.57;3.00;;;5.30;70.20;;;;;;5110172;28;20034;-77
2024/01/16 11:01:56;;;;;;;9.50;3.47;;;5.30;70.30;;;;;;5099826;28;20101;-77
2024/01/16 11:04:23;;;;;;;8.00;2.93;;;5.40;70.00;;;;;;5110826;28;20424;-78
2024/01/16 11:06:52;;;;;;;7.57;2.80;;;5.50;70.00;;;;;;5086221;28;20365;-78
2024/01/16 11:09:20;;;;;;;7.97;2.97;;;5.70;69.70;;;;;;5111644;28;20112;-77
2024/01/16 11:11:47;;;;;;;7.60;2.93;;;5.70;69.40;;;;;;5105872;28;20047;-77
2024/01/16 11:14:16;;;;;;;7.60;2.53;;;5.80;69.20;;;;;;5107578;28;20027;-77
2024/01/16 11:16:43;;;;;;;6.63;2.67;;;5.90;68.90;;;;;;5096045;28;20043;-76
2024/01/16 11:19:09;;;;;;;8.27;2.50;;;5.90;68.80;;;;;;5094269;28;20114;-74
2024/01/16 11:21:39;;;;;;;7.50;2.47;;;5.90;68.70;;;;;;5094688;28;20459;-76
2024/01/16 11:24:06;;;;;;;7.80;2.93;;;5.90;68.60;;;;;;5098837;28;20023;-74
2024/01/16 11:26:33;;;;;;;7.60;3.00;;;5.90;68.70;;;;;;5103427;28;20365;-76
2024/01/16 11:29:00;;;;;;;7.93;3.40;;;5.90;68.50;;;;;;5097752;28;20077;-75
2024/01/16 11:31:31;;;;;;;10.33;3.33;;;6.00;68.50;;;;;;5102819;28;20019;-74
2024/01/16 11:33:59;;;;;;;7.35;2.80;;;6.00;68.20;;;;;;5101511;28;20086;-74
2024/01/16 11:36:55;;;;;;;8.93;2.97;;;6.20;68.20;;;;;;5108726;28;20321;-74
2024/01/16 11:39:22;;;;;;;6.10;2.50;;;6.20;68.00;;;;;;5086654;28;20035;-74
2024/01/16 11:41:59;;;;;;;8.07;2.57;;;6.20;67.90;;;;;;5089041;28;20157;-74
2024/01/16 11:44:40;;;;;;;10.17;3.17;;;6.20;67.60;;;;;;5095863;28;20478;-75
2024/01/16 11:47:06;;;;;;;9.15;2.63;;;6.10;67.70;;;;;;5103294;28;20432;-75
2024/01/16 11:49:32;;;;;;;8.90;2.87;;;6.10;67.80;;;;;;5072641;28;20024;-74
2024/01/16 11:51:59;;;;;;;7.13;2.40;;;6.00;67.70;;;;;;5085975;28;20024;-73
2024/01/16 11:54:25;;;;;;;9.53;3.10;;;6.10;67.70;;;;;;5097689;28;20404;-73
2024/01/16 11:57:09;;;;;;;9.20;2.73;;;6.00;67.70;;;;;;5099316;28;20118;-72
2024/01/16 11:59:53;;;;;;;8.80;3.00;;;6.10;67.60;;;;;;5085035;28;20051;-73
2024/01/16 12:02:24;;;;;;;6.87;3.00;;;6.00;67.50;;;;;;5097079;28;20035;-74
2024/01/16 12:04:56;;;;;;;9.20;3.28;;;6.00;67.60;;;;;;5087341;28;20249;-74
2024/01/16 12:07:22;;;;;;;7.63;3.27;;;6.10;67.60;;;;;;5105772;28;20024;-75
2024/01/16 12:09:48;;;;;;;8.00;3.20;;;6.10;67.50;;;;;;5103258;28;20115;-74
2024/01/16 12:12:18;;;;;;;9.00;3.23;;;6.00;67.30;;;;;;5110427;28;20172;-75
2024/01/16 12:14:53;;;;;;;8.33;3.67;;;6.00;67.20;;;;;;5099716;28;20046;-75
2024/01/16 12:17:20;;;;;;;8.13;2.83;;;6.00;67.10;;;;;;5084457;28;20058;-67
2024/01/16 12:19:46;;;;;;;7.10;3.03;;;6.00;67.20;;;;;;5093732;28;20045;-75
2024/01/16 12:22:21;;;;;;;11.07;3.13;;;6.00;67.20;;;;;;5094433;28;20024;-76
2024/01/16 12:24:47;;;;;;;8.23;2.97;;;5.90;67.00;;;;;;5082823;28;20351;-76
2024/01/16 12:27:13;;;;;;;8.37;3.40;;;5.90;67.10;;;;;;5079874;28;20023;-74
2024/01/16 12:29:41;;;;;;;8.20;2.97;;;5.90;67.00;;;;;;5097823;28;20117;-73
2024/01/16 12:32:11;;;;;;;8.67;2.87;;;5.90;67.00;;;;;;5091521;28;20032;-73
2024/01/16 12:34:46;;;;;;;7.27;2.90;;;5.90;67.00;;;;;;5094191;28;20122;-72
2024/01/16 12:37:12;;;;;;;9.27;3.03;;;5.90;67.60;;;;;;5081398;28;20032;-73
2024/01/16 12:39:39;;;;;;;9.17;3.23;;;6.00;66.90;;;;;;5101569;28;20170;-73
2024/01/16 12:42:05;;;;;;;8.03;3.60;;;6.00;66.90;;;;;;5088889;28;20036;-73
2024/01/16 12:44:31;;;;;;;7.63;3.23;;;6.00;66.90;;;;;;5084531;28;20043;-73
2024/01/16 12:46:57;;;;;;;8.80;3.03;;;6.00;66.80;;;;;;5094024;28;20024;-73
2024/01/16 12:49:24;;;;;;;7.77;3.60;;;6.10;66.90;;;;;;5091204;28;20500;-73
2024/01/16 12:51:50;;;;;;;9.10;3.40;;;6.10;66.80;;;;;;5087640;28;20024;-73
2024/01/16 12:54:18;;;;;;;10.60;3.30;;;6.10;66.80;;;;;;5083486;28;20294;-73